sensor_id;sensor_type;location;lat;lon;timestamp;temperature;humidity
62998;DHT22;55949;52.590;7.330;2023-04-06T00:00:00;3.80;99.90
62998;DHT22;55949;52.590;7.330;2023-04-06T00:01:01;3.90;99.90
62998;DHT22;55949;52.590;7.330;2023-04-06T00:02:02;4.00;99.90
62998;DHT22;55949;52.590;7.330;2023-04-06T00:03:02;3.90;99.90
62998;DHT22;55949;52.590;7.330;2023-04-06T00:04:03;3.90;99.90
62998;DHT22;55949;52.590;7.330;2023-04-06T00:05:04;3.90;99.90
62998;DHT22;55949;52.590;7.330;2023-04-06T00:06:05;4.00;99.90
62998;DHT22;55949;52.590;7.330;2023-04-06T00:07:06;4.10;99.90
62998;DHT22;55949;52.590;7.330;2023-04-06T00:08:07;4.20;99.90
62998;DHT22;55949;52.590;7.330;2023-04-06T00:09:08;4.20;99.90
62998;DHT22;55949;52.590;7.330;2023-04-06T00:10:09;4.20;99.90
62998;DHT22;55949;52.590;7.330;2023-04-06T00:11:10;4.10;99.90
62998;DHT22;55949;52.590;7.330;2023-04-06T00:12:10;4.10;99.90
62998;DHT22;55949;52.590;7.330;2023-04-06T00:13:11;4.00;99.90
62998;DHT22;55949;52.590;7.330;2023-04-06T00:14:12;4.00;99.90
62998;DHT22;55949;52.590;7.330;2023-04-06T00:15:12;4.00;99.90
62998;DHT22;55949;52.590;7.330;2023-04-06T00:16:13;4.00;99.90
62998;DHT22;55949;52.590;7.330;2023-04-06T00:17:14;4.00;99.90
62998;DHT22;55949;52.590;7.330;2023-04-06T00:18:14;4.00;99.90
62998;DHT22;55949;52.590;7.330;2023-04-06T00:19:15;4.00;99.90
62998;DHT22;55949;52.590;7.330;2023-04-06T00:20:16;4.00;99.90
62998;DHT22;55949;52.590;7.330;2023-04-06T00:21:20;3.90;99.90
62998;DHT22;55949;52.590;7.330;2023-04-06T00:22:21;3.80;99.90
62998;DHT22;55949;52.590;7.330;2023-04-06T00:23:21;3.70;99.90
62998;DHT22;55949;52.590;7.330;2023-04-06T00:24:22;3.50;99.90
62998;DHT22;55949;52.590;7.330;2023-04-06T00:25:23;3.50;99.90
62998;DHT22;55949;52.590;7.330;2023-04-06T00:26:24;3.50;99.90
62998;DHT22;55949;52.590;7.330;2023-04-06T00:27:25;3.50;99.90
62998;DHT22;55949;52.590;7.330;2023-04-06T00:28:25;3.40;99.90
62998;DHT22;55949;52.590;7.330;2023-04-06T00:29:26;3.40;99.90
62998;DHT22;55949;52.590;7.330;2023-04-06T00:30:27;3.40;99.90
62998;DHT22;55949;52.590;7.330;2023-04-06T00:31:27;3.30;99.90
62998;DHT22;55949;52.590;7.330;2023-04-06T00:32:28;3.30;99.90
62998;DHT22;55949;52.590;7.330;2023-04-06T00:33:29;3.30;99.90
62998;DHT22;55949;52.590;7.330;2023-04-06T00:34:30;3.20;99.90
62998;DHT22;55949;52.590;7.330;2023-04-06T00:35:30;3.30;99.90
62998;DHT22;55949;52.590;7.330;2023-04-06T00:36:31;3.30;99.90
62998;DHT22;55949;52.590;7.330;2023-04-06T00:37:32;3.30;99.90
62998;DHT22;55949;52.590;7.330;2023-04-06T00:38:33;3.30;99.90
62998;DHT22;55949;52.590;7.330;2023-04-06T00:39:33;3.30;99.90
62998;DHT22;55949;52.590;7.330;2023-04-06T00:40:34;3.20;99.90
62998;DHT22;55949;52.590;7.330;2023-04-06T00:41:35;3.20;99.90
62998;DHT22;55949;52.590;7.330;2023-04-06T00:42:36;3.10;99.90
62998;DHT22;55949;52.590;7.330;2023-04-06T00:43:37;3.10;99.90
62998;DHT22;55949;52.590;7.330;2023-04-06T00:44:38;3.20;99.90
62998;DHT22;55949;52.590;7.330;2023-04-06T00:45:39;3.20;99.90
62998;DHT22;55949;52.590;7.330;2023-04-06T00:46:40;3.20;99.90
62998;DHT22;55949;52.590;7.330;2023-04-06T00:47:41;3.10;99.90
62998;DHT22;55949;52.590;7.330;2023-04-06T00:48:42;3.10;99.90
62998;DHT22;55949;52.590;7.330;2023-04-06T00:49:43;3.10;99.90
62998;DHT22;55949;52.590;7.330;2023-04-06T00:50:44;3.10;99.90
62998;DHT22;55949;52.590;7.330;2023-04-06T00:51:44;3.10;99.90
62998;DHT22;55949;52.590;7.330;2023-04-06T00:52:45;3.10;99.90
62998;DHT22;55949;52.590;7.330;2023-04-06T00:53:46;3.00;99.90
62998;DHT22;55949;52.590;7.330;2023-04-06T00:54:47;2.90;99.90
62998;DHT22;55949;52.590;7.330;2023-04-06T00:55:48;2.90;99.90
62998;DHT22;55949;52.590;7.330;2023-04-06T00:56:49;2.90;99.90
62998;DHT22;55949;52.590;7.330;2023-04-06T00:57:50;2.90;99.90
62998;DHT22;55949;52.590;7.330;2023-04-06T00:58:51;2.90;99.90
62998;DHT22;55949;52.590;7.330;2023-04-06T00:59:53;2.90;99.90
62998;DHT22;55949;52.590;7.330;2023-04-06T01:00:53;2.80;99.90
62998;DHT22;55949;52.590;7.330;2023-04-06T01:01:55;2.80;99.90
62998;DHT22;55949;52.590;7.330;2023-04-06T01:02:56;2.80;99.90
62998;DHT22;55949;52.590;7.330;2023-04-06T01:03:56;2.80;99.90
62998;DHT22;55949;52.590;7.330;2023-04-06T01:04:57;2.90;99.90
62998;DHT22;55949;52.590;7.330;2023-04-06T01:05:58;2.80;99.90
62998;DHT22;55949;52.590;7.330;2023-04-06T01:06:59;2.80;99.90
62998;DHT22;55949;52.590;7.330;2023-04-06T01:08:00;2.70;99.90
62998;DHT22;55949;52.590;7.330;2023-04-06T01:09:01;2.90;99.90
62998;DHT22;55949;52.590;7.330;2023-04-06T01:10:02;3.00;99.90
62998;DHT22;55949;52.590;7.330;2023-04-06T01:11:03;3.00;99.90
62998;DHT22;55949;52.590;7.330;2023-04-06T01:12:04;2.90;99.90
62998;DHT22;55949;52.590;7.330;2023-04-06T01:13:04;2.90;99.90
62998;DHT22;55949;52.590;7.330;2023-04-06T01:14:06;2.80;99.90
62998;DHT22;55949;52.590;7.330;2023-04-06T01:15:07;2.80;99.90
62998;DHT22;55949;52.590;7.330;2023-04-06T01:16:08;2.80;99.90
62998;DHT22;55949;52.590;7.330;2023-04-06T01:17:10;2.80;99.90
62998;DHT22;55949;52.590;7.330;2023-04-06T01:18:11;2.70;99.90
62998;DHT22;55949;52.590;7.330;2023-04-06T01:19:13;2.70;99.90
62998;DHT22;55949;52.590;7.330;2023-04-06T01:20:14;2.70;99.90
62998;DHT22;55949;52.590;7.330;2023-04-06T01:21:14;2.70;99.90
62998;DHT22;55949;52.590;7.330;2023-04-06T01:22:18;2.80;99.90
62998;DHT22;55949;52.590;7.330;2023-04-06T01:23:19;2.70;99.90
62998;DHT22;55949;52.590;7.330;2023-04-06T01:24:21;2.70;99.90
62998;DHT22;55949;52.590;7.330;2023-04-06T01:25:22;2.70;99.90
62998;DHT22;55949;52.590;7.330;2023-04-06T01:26:23;2.70;99.90
62998;DHT22;55949;52.590;7.330;2023-04-06T01:27:23;2.90;99.90
62998;DHT22;55949;52.590;7.330;2023-04-06T01:28:25;2.90;99.90
62998;DHT22;55949;52.590;7.330;2023-04-06T01:29:26;2.90;99.90
62998;DHT22;55949;52.590;7.330;2023-04-06T01:30:27;2.90;99.90
62998;DHT22;55949;52.590;7.330;2023-04-06T01:31:28;2.90;99.90
62998;DHT22;55949;52.590;7.330;2023-04-06T01:32:29;2.90;99.90
62998;DHT22;55949;52.590;7.330;2023-04-06T01:33:30;2.90;99.90
62998;DHT22;55949;52.590;7.330;2023-04-06T01:34:31;2.80;99.90
62998;DHT22;55949;52.590;7.330;2023-04-06T01:35:32;2.80;99.90
62998;DHT22;55949;52.590;7.330;2023-04-06T01:36:33;2.80;99.90
62998;DHT22;55949;52.590;7.330;2023-04-06T01:37:33;2.80;99.90
62998;DHT22;55949;52.590;7.330;2023-04-06T01:38:34;2.80;99.90
62998;DHT22;55949;52.590;7.330;2023-04-06T01:39:35;2.70;99.90
62998;DHT22;55949;52.590;7.330;2023-04-06T01:40:36;2.70;99.90
62998;DHT22;55949;52.590;7.330;2023-04-06T01:41:37;2.80;99.90
62998;DHT22;55949;52.590;7.330;2023-04-06T01:42:38;2.70;99.90
62998;DHT22;55949;52.590;7.330;2023-04-06T01:43:38;2.80;99.90
62998;DHT22;55949;52.590;7.330;2023-04-06T01:44:39;2.70;99.90
62998;DHT22;55949;52.590;7.330;2023-04-06T01:45:40;2.70;99.90
62998;DHT22;55949;52.590;7.330;2023-04-06T01:46:41;2.70;99.90
62998;DHT22;55949;52.590;7.330;2023-04-06T01:47:42;2.80;99.90
62998;DHT22;55949;52.590;7.330;2023-04-06T01:48:42;2.70;99.90
62998;DHT22;55949;52.590;7.330;2023-04-06T01:49:43;2.70;99.90
62998;DHT22;55949;52.590;7.330;2023-04-06T01:50:44;2.60;99.90
62998;DHT22;55949;52.590;7.330;2023-04-06T01:51:44;2.70;99.90
62998;DHT22;55949;52.590;7.330;2023-04-06T01:52:45;2.80;99.90
62998;DHT22;55949;52.590;7.330;2023-04-06T01:53:46;2.70;99.90
62998;DHT22;55949;52.590;7.330;2023-04-06T01:54:46;2.70;99.90
62998;DHT22;55949;52.590;7.330;2023-04-06T01:55:47;2.70;99.90
62998;DHT22;55949;52.590;7.330;2023-04-06T01:56:48;2.70;99.90
62998;DHT22;55949;52.590;7.330;2023-04-06T01:57:50;2.70;99.90
62998;DHT22;55949;52.590;7.330;2023-04-06T01:58:51;2.80;99.90
62998;DHT22;55949;52.590;7.330;2023-04-06T01:59:52;3.20;99.90
62998;DHT22;55949;52.590;7.330;2023-04-06T02:00:52;3.30;99.90
62998;DHT22;55949;52.590;7.330;2023-04-06T02:01:53;3.20;99.90
62998;DHT22;55949;52.590;7.330;2023-04-06T02:02:54;3.10;99.90
62998;DHT22;55949;52.590;7.330;2023-04-06T02:03:54;3.00;99.90
62998;DHT22;55949;52.590;7.330;2023-04-06T02:04:55;3.00;99.90
62998;DHT22;55949;52.590;7.330;2023-04-06T02:05:56;3.00;99.90
62998;DHT22;55949;52.590;7.330;2023-04-06T02:06:57;2.90;99.90
62998;DHT22;55949;52.590;7.330;2023-04-06T02:07:57;2.90;99.90
62998;DHT22;55949;52.590;7.330;2023-04-06T02:08:58;2.80;99.90
62998;DHT22;55949;52.590;7.330;2023-04-06T02:09:59;2.80;99.90
62998;DHT22;55949;52.590;7.330;2023-04-06T02:10:59;2.70;99.90
62998;DHT22;55949;52.590;7.330;2023-04-06T02:12:00;2.70;99.90
62998;DHT22;55949;52.590;7.330;2023-04-06T02:13:01;2.70;99.90
62998;DHT22;55949;52.590;7.330;2023-04-06T02:14:02;2.60;99.90
62998;DHT22;55949;52.590;7.330;2023-04-06T02:15:03;2.60;99.90
62998;DHT22;55949;52.590;7.330;2023-04-06T02:16:04;2.50;99.90
62998;DHT22;55949;52.590;7.330;2023-04-06T02:17:05;2.50;99.90
62998;DHT22;55949;52.590;7.330;2023-04-06T02:18:06;2.50;99.90
62998;DHT22;55949;52.590;7.330;2023-04-06T02:19:07;2.50;99.90
62998;DHT22;55949;52.590;7.330;2023-04-06T02:20:08;2.40;99.90
62998;DHT22;55949;52.590;7.330;2023-04-06T02:21:09;2.30;99.90
62998;DHT22;55949;52.590;7.330;2023-04-06T02:22:09;2.20;99.90
62998;DHT22;55949;52.590;7.330;2023-04-06T02:23:10;2.20;99.90
62998;DHT22;55949;52.590;7.330;2023-04-06T02:24:11;2.20;99.90
62998;DHT22;55949;52.590;7.330;2023-04-06T02:25:12;2.20;99.90
62998;DHT22;55949;52.590;7.330;2023-04-06T02:26:13;2.20;99.90
62998;DHT22;55949;52.590;7.330;2023-04-06T02:27:14;2.20;99.90
62998;DHT22;55949;52.590;7.330;2023-04-06T02:28:15;2.10;99.90
62998;DHT22;55949;52.590;7.330;2023-04-06T02:29:16;2.00;99.90
62998;DHT22;55949;52.590;7.330;2023-04-06T02:30:16;2.00;99.90
62998;DHT22;55949;52.590;7.330;2023-04-06T02:31:17;1.90;99.90
62998;DHT22;55949;52.590;7.330;2023-04-06T02:32:18;1.90;99.90
62998;DHT22;55949;52.590;7.330;2023-04-06T02:33:19;1.90;99.90
62998;DHT22;55949;52.590;7.330;2023-04-06T02:34:20;1.90;99.90
62998;DHT22;55949;52.590;7.330;2023-04-06T02:35:21;1.80;99.90
62998;DHT22;55949;52.590;7.330;2023-04-06T02:36:22;1.90;99.90
62998;DHT22;55949;52.590;7.330;2023-04-06T02:37:22;1.80;99.90
62998;DHT22;55949;52.590;7.330;2023-04-06T02:38:26;1.70;99.90
62998;DHT22;55949;52.590;7.330;2023-04-06T02:39:27;1.60;99.90
62998;DHT22;55949;52.590;7.330;2023-04-06T02:40:27;1.70;99.90
62998;DHT22;55949;52.590;7.330;2023-04-06T02:41:28;1.70;99.90
62998;DHT22;55949;52.590;7.330;2023-04-06T02:42:29;1.70;99.90
62998;DHT22;55949;52.590;7.330;2023-04-06T02:43:30;1.70;99.90
62998;DHT22;55949;52.590;7.330;2023-04-06T02:44:31;1.70;99.90
62998;DHT22;55949;52.590;7.330;2023-04-06T02:45:31;1.70;99.90
62998;DHT22;55949;52.590;7.330;2023-04-06T02:46:32;1.70;99.90
62998;DHT22;55949;52.590;7.330;2023-04-06T02:47:33;1.70;99.90
62998;DHT22;55949;52.590;7.330;2023-04-06T02:48:34;1.70;99.90
62998;DHT22;55949;52.590;7.330;2023-04-06T02:49:36;1.70;99.90
62998;DHT22;55949;52.590;7.330;2023-04-06T02:50:37;1.60;99.90
62998;DHT22;55949;52.590;7.330;2023-04-06T02:51:38;1.60;99.90
62998;DHT22;55949;52.590;7.330;2023-04-06T02:52:38;1.60;99.90
62998;DHT22;55949;52.590;7.330;2023-04-06T02:53:39;1.50;99.90
62998;DHT22;55949;52.590;7.330;2023-04-06T02:54:40;1.60;99.90
62998;DHT22;55949;52.590;7.330;2023-04-06T02:55:40;1.60;99.90
62998;DHT22;55949;52.590;7.330;2023-04-06T02:56:41;1.60;99.90
62998;DHT22;55949;52.590;7.330;2023-04-06T02:57:42;1.60;99.90
62998;DHT22;55949;52.590;7.330;2023-04-06T02:58:42;1.70;99.90
62998;DHT22;55949;52.590;7.330;2023-04-06T02:59:43;1.60;99.90
62998;DHT22;55949;52.590;7.330;2023-04-06T03:00:44;1.60;99.90
62998;DHT22;55949;52.590;7.330;2023-04-06T03:01:45;1.50;99.90
62998;DHT22;55949;52.590;7.330;2023-04-06T03:02:46;1.50;99.90
62998;DHT22;55949;52.590;7.330;2023-04-06T03:03:47;1.90;99.90
62998;DHT22;55949;52.590;7.330;2023-04-06T03:04:48;2.00;99.90
62998;DHT22;55949;52.590;7.330;2023-04-06T03:05:48;2.00;99.90
62998;DHT22;55949;52.590;7.330;2023-04-06T03:06:49;1.90;99.90
62998;DHT22;55949;52.590;7.330;2023-04-06T03:07:50;1.80;99.90
62998;DHT22;55949;52.590;7.330;2023-04-06T03:08:51;1.70;99.90
62998;DHT22;55949;52.590;7.330;2023-04-06T03:09:51;1.70;99.90
62998;DHT22;55949;52.590;7.330;2023-04-06T03:10:52;1.70;99.90
62998;DHT22;55949;52.590;7.330;2023-04-06T03:11:53;1.70;99.90
62998;DHT22;55949;52.590;7.330;2023-04-06T03:12:53;1.70;99.90
62998;DHT22;55949;52.590;7.330;2023-04-06T03:13:54;1.70;99.90
62998;DHT22;55949;52.590;7.330;2023-04-06T03:14:55;1.70;99.90
62998;DHT22;55949;52.590;7.330;2023-04-06T03:15:56;1.70;99.90
62998;DHT22;55949;52.590;7.330;2023-04-06T03:16:56;1.80;99.90
62998;DHT22;55949;52.590;7.330;2023-04-06T03:17:57;2.00;99.90
62998;DHT22;55949;52.590;7.330;2023-04-06T03:18:58;1.90;99.90
62998;DHT22;55949;52.590;7.330;2023-04-06T03:19:59;1.80;99.90
62998;DHT22;55949;52.590;7.330;2023-04-06T03:20:59;1.70;99.90
62998;DHT22;55949;52.590;7.330;2023-04-06T03:22:01;1.70;99.90
62998;DHT22;55949;52.590;7.330;2023-04-06T03:23:02;1.80;99.90
62998;DHT22;55949;52.590;7.330;2023-04-06T03:24:02;2.10;99.90
62998;DHT22;55949;52.590;7.330;2023-04-06T03:25:03;2.30;99.90
62998;DHT22;55949;52.590;7.330;2023-04-06T03:26:04;2.50;99.90
62998;DHT22;55949;52.590;7.330;2023-04-06T03:27:05;2.70;99.90
62998;DHT22;55949;52.590;7.330;2023-04-06T03:28:06;2.70;99.90
62998;DHT22;55949;52.590;7.330;2023-04-06T03:29:07;2.60;99.90
62998;DHT22;55949;52.590;7.330;2023-04-06T03:30:08;2.40;99.90
62998;DHT22;55949;52.590;7.330;2023-04-06T03:31:09;2.30;99.90
62998;DHT22;55949;52.590;7.330;2023-04-06T03:32:10;2.30;99.90
62998;DHT22;55949;52.590;7.330;2023-04-06T03:33:10;2.20;99.90
62998;DHT22;55949;52.590;7.330;2023-04-06T03:34:11;2.20;99.90
62998;DHT22;55949;52.590;7.330;2023-04-06T03:35:12;2.10;99.90
62998;DHT22;55949;52.590;7.330;2023-04-06T03:36:13;2.10;99.90
62998;DHT22;55949;52.590;7.330;2023-04-06T03:37:13;2.10;99.90
62998;DHT22;55949;52.590;7.330;2023-04-06T03:38:14;2.10;99.90
62998;DHT22;55949;52.590;7.330;2023-04-06T03:39:15;2.10;99.90
62998;DHT22;55949;52.590;7.330;2023-04-06T03:40:16;2.10;99.90
62998;DHT22;55949;52.590;7.330;2023-04-06T03:41:17;2.00;99.90
62998;DHT22;55949;52.590;7.330;2023-04-06T03:42:17;2.00;99.90
62998;DHT22;55949;52.590;7.330;2023-04-06T03:43:18;2.00;99.90
62998;DHT22;55949;52.590;7.330;2023-04-06T03:44:19;2.00;99.90
62998;DHT22;55949;52.590;7.330;2023-04-06T03:45:20;2.00;99.90
62998;DHT22;55949;52.590;7.330;2023-04-06T03:46:20;2.00;99.90
62998;DHT22;55949;52.590;7.330;2023-04-06T03:47:21;2.00;99.90
62998;DHT22;55949;52.590;7.330;2023-04-06T03:48:22;1.90;99.90
62998;DHT22;55949;52.590;7.330;2023-04-06T03:49:23;1.90;99.90
62998;DHT22;55949;52.590;7.330;2023-04-06T03:50:23;2.10;99.90
62998;DHT22;55949;52.590;7.330;2023-04-06T03:51:24;2.00;99.90
62998;DHT22;55949;52.590;7.330;2023-04-06T03:52:25;1.90;99.90
62998;DHT22;55949;52.590;7.330;2023-04-06T03:53:26;1.80;99.90
62998;DHT22;55949;52.590;7.330;2023-04-06T03:54:27;1.80;99.90
62998;DHT22;55949;52.590;7.330;2023-04-06T03:55:28;1.70;99.90
62998;DHT22;55949;52.590;7.330;2023-04-06T03:56:29;1.70;99.90
62998;DHT22;55949;52.590;7.330;2023-04-06T03:57:29;1.70;99.90
62998;DHT22;55949;52.590;7.330;2023-04-06T03:58:30;1.70;99.90
62998;DHT22;55949;52.590;7.330;2023-04-06T03:59:31;1.70;99.90
62998;DHT22;55949;52.590;7.330;2023-04-06T04:00:32;1.60;99.90
62998;DHT22;55949;52.590;7.330;2023-04-06T04:01:33;1.70;99.90
62998;DHT22;55949;52.590;7.330;2023-04-06T04:02:34;1.60;99.90
62998;DHT22;55949;52.590;7.330;2023-04-06T04:03:34;1.60;99.90
62998;DHT22;55949;52.590;7.330;2023-04-06T04:04:35;1.60;99.90
62998;DHT22;55949;52.590;7.330;2023-04-06T04:05:36;1.70;99.90
62998;DHT22;55949;52.590;7.330;2023-04-06T04:06:36;1.70;99.90
62998;DHT22;55949;52.590;7.330;2023-04-06T04:07:37;1.70;99.90
62998;DHT22;55949;52.590;7.330;2023-04-06T04:08:38;1.60;99.90
62998;DHT22;55949;52.590;7.330;2023-04-06T04:09:38;1.60;99.90
62998;DHT22;55949;52.590;7.330;2023-04-06T04:10:39;1.50;99.90
62998;DHT22;55949;52.590;7.330;2023-04-06T04:11:40;1.60;99.90
62998;DHT22;55949;52.590;7.330;2023-04-06T04:12:41;1.50;99.90
62998;DHT22;55949;52.590;7.330;2023-04-06T04:13:41;1.50;99.90
62998;DHT22;55949;52.590;7.330;2023-04-06T04:14:42;1.50;99.90
62998;DHT22;55949;52.590;7.330;2023-04-06T04:15:44;1.50;99.90
62998;DHT22;55949;52.590;7.330;2023-04-06T04:16:45;1.60;99.90
62998;DHT22;55949;52.590;7.330;2023-04-06T04:17:45;1.60;99.90
62998;DHT22;55949;52.590;7.330;2023-04-06T04:18:49;1.60;99.90
62998;DHT22;55949;52.590;7.330;2023-04-06T04:19:50;1.60;99.90
62998;DHT22;55949;52.590;7.330;2023-04-06T04:20:51;1.50;99.90
62998;DHT22;55949;52.590;7.330;2023-04-06T04:21:51;1.50;99.90
62998;DHT22;55949;52.590;7.330;2023-04-06T04:22:52;1.40;99.90
62998;DHT22;55949;52.590;7.330;2023-04-06T04:23:53;1.40;99.90
62998;DHT22;55949;52.590;7.330;2023-04-06T04:24:54;1.30;99.90
62998;DHT22;55949;52.590;7.330;2023-04-06T04:25:54;1.40;99.90
62998;DHT22;55949;52.590;7.330;2023-04-06T04:26:56;1.30;99.90
62998;DHT22;55949;52.590;7.330;2023-04-06T04:27:57;1.30;99.90
62998;DHT22;55949;52.590;7.330;2023-04-06T04:28:58;1.40;99.90
62998;DHT22;55949;52.590;7.330;2023-04-06T04:29:58;1.30;99.90
62998;DHT22;55949;52.590;7.330;2023-04-06T04:30:59;1.30;99.90
62998;DHT22;55949;52.590;7.330;2023-04-06T04:32:00;1.30;99.90
62998;DHT22;55949;52.590;7.330;2023-04-06T04:33:02;1.40;99.90
62998;DHT22;55949;52.590;7.330;2023-04-06T04:34:02;1.50;99.90
62998;DHT22;55949;52.590;7.330;2023-04-06T04:35:04;1.50;99.90
62998;DHT22;55949;52.590;7.330;2023-04-06T04:36:05;1.40;99.90
62998;DHT22;55949;52.590;7.330;2023-04-06T04:37:06;1.50;99.90
62998;DHT22;55949;52.590;7.330;2023-04-06T04:38:07;1.50;99.90
62998;DHT22;55949;52.590;7.330;2023-04-06T04:39:08;1.50;99.90
62998;DHT22;55949;52.590;7.330;2023-04-06T04:40:09;1.50;99.90
62998;DHT22;55949;52.590;7.330;2023-04-06T04:41:10;1.60;99.90
62998;DHT22;55949;52.590;7.330;2023-04-06T04:42:11;1.60;99.90
62998;DHT22;55949;52.590;7.330;2023-04-06T04:43:11;1.60;99.90
62998;DHT22;55949;52.590;7.330;2023-04-06T04:44:12;1.60;99.90
62998;DHT22;55949;52.590;7.330;2023-04-06T04:45:13;1.70;99.90
62998;DHT22;55949;52.590;7.330;2023-04-06T04:46:14;1.70;99.90
62998;DHT22;55949;52.590;7.330;2023-04-06T04:47:15;1.80;99.90
62998;DHT22;55949;52.590;7.330;2023-04-06T04:48:15;1.80;99.90
62998;DHT22;55949;52.590;7.330;2023-04-06T04:49:16;1.80;99.90
62998;DHT22;55949;52.590;7.330;2023-04-06T04:50:17;1.80;99.90
62998;DHT22;55949;52.590;7.330;2023-04-06T04:51:18;1.80;99.90
62998;DHT22;55949;52.590;7.330;2023-04-06T04:52:20;1.80;99.90
62998;DHT22;55949;52.590;7.330;2023-04-06T04:53:21;1.70;99.90
62998;DHT22;55949;52.590;7.330;2023-04-06T04:54:21;1.70;99.90
62998;DHT22;55949;52.590;7.330;2023-04-06T04:55:22;1.70;99.90
62998;DHT22;55949;52.590;7.330;2023-04-06T04:56:23;1.60;99.90
62998;DHT22;55949;52.590;7.330;2023-04-06T04:57:24;1.60;99.90
62998;DHT22;55949;52.590;7.330;2023-04-06T04:58:25;1.60;99.90
62998;DHT22;55949;52.590;7.330;2023-04-06T04:59:26;1.60;99.90
62998;DHT22;55949;52.590;7.330;2023-04-06T05:00:27;1.50;99.90
62998;DHT22;55949;52.590;7.330;2023-04-06T05:01:27;1.50;99.90
62998;DHT22;55949;52.590;7.330;2023-04-06T05:02:28;1.40;99.90
62998;DHT22;55949;52.590;7.330;2023-04-06T05:03:29;1.30;99.90
62998;DHT22;55949;52.590;7.330;2023-04-06T05:04:30;1.30;99.90
62998;DHT22;55949;52.590;7.330;2023-04-06T05:05:31;1.30;99.90
62998;DHT22;55949;52.590;7.330;2023-04-06T05:06:31;1.40;99.90
62998;DHT22;55949;52.590;7.330;2023-04-06T05:07:32;1.40;99.90
62998;DHT22;55949;52.590;7.330;2023-04-06T05:08:34;1.40;99.90
62998;DHT22;55949;52.590;7.330;2023-04-06T05:09:35;1.40;99.90
62998;DHT22;55949;52.590;7.330;2023-04-06T05:10:35;1.40;99.90
62998;DHT22;55949;52.590;7.330;2023-04-06T05:11:36;1.30;99.90
62998;DHT22;55949;52.590;7.330;2023-04-06T05:12:37;1.20;99.90
62998;DHT22;55949;52.590;7.330;2023-04-06T05:13:38;1.20;99.90
62998;DHT22;55949;52.590;7.330;2023-04-06T05:14:40;1.10;99.90
62998;DHT22;55949;52.590;7.330;2023-04-06T05:15:40;1.20;99.90
62998;DHT22;55949;52.590;7.330;2023-04-06T05:16:41;1.30;99.90
62998;DHT22;55949;52.590;7.330;2023-04-06T05:17:42;1.30;99.90
62998;DHT22;55949;52.590;7.330;2023-04-06T05:18:43;1.20;99.90
62998;DHT22;55949;52.590;7.330;2023-04-06T05:19:43;1.20;99.90
62998;DHT22;55949;52.590;7.330;2023-04-06T05:20:45;1.20;99.90
62998;DHT22;55949;52.590;7.330;2023-04-06T05:21:46;1.20;99.90
62998;DHT22;55949;52.590;7.330;2023-04-06T05:22:46;1.30;99.90
62998;DHT22;55949;52.590;7.330;2023-04-06T05:23:47;1.30;99.90
62998;DHT22;55949;52.590;7.330;2023-04-06T05:24:48;1.30;99.90
62998;DHT22;55949;52.590;7.330;2023-04-06T05:25:49;1.40;99.90
62998;DHT22;55949;52.590;7.330;2023-04-06T05:26:49;1.40;99.90
62998;DHT22;55949;52.590;7.330;2023-04-06T05:27:50;1.50;99.90
62998;DHT22;55949;52.590;7.330;2023-04-06T05:28:51;1.50;99.90
62998;DHT22;55949;52.590;7.330;2023-04-06T05:29:52;1.40;99.90
62998;DHT22;55949;52.590;7.330;2023-04-06T05:30:53;1.50;99.90
62998;DHT22;55949;52.590;7.330;2023-04-06T05:31:54;1.50;99.90
62998;DHT22;55949;52.590;7.330;2023-04-06T05:32:55;1.60;99.90
62998;DHT22;55949;52.590;7.330;2023-04-06T05:33:56;1.50;99.90
62998;DHT22;55949;52.590;7.330;2023-04-06T05:34:57;1.50;99.90
62998;DHT22;55949;52.590;7.330;2023-04-06T05:35:57;1.40;99.90
62998;DHT22;55949;52.590;7.330;2023-04-06T05:37:01;1.40;99.90
62998;DHT22;55949;52.590;7.330;2023-04-06T05:38:01;1.50;99.90
62998;DHT22;55949;52.590;7.330;2023-04-06T05:39:02;1.50;99.90
62998;DHT22;55949;52.590;7.330;2023-04-06T05:40:03;1.50;99.90
62998;DHT22;55949;52.590;7.330;2023-04-06T05:41:04;1.50;99.90
62998;DHT22;55949;52.590;7.330;2023-04-06T05:42:05;1.60;99.90
62998;DHT22;55949;52.590;7.330;2023-04-06T05:43:07;1.70;99.90
62998;DHT22;55949;52.590;7.330;2023-04-06T05:44:08;1.80;99.90
62998;DHT22;55949;52.590;7.330;2023-04-06T05:45:10;1.80;99.90
62998;DHT22;55949;52.590;7.330;2023-04-06T05:46:11;2.00;99.90
62998;DHT22;55949;52.590;7.330;2023-04-06T05:47:12;2.20;99.90
62998;DHT22;55949;52.590;7.330;2023-04-06T05:48:12;2.50;99.90
62998;DHT22;55949;52.590;7.330;2023-04-06T05:49:13;2.60;99.90
62998;DHT22;55949;52.590;7.330;2023-04-06T05:50:15;2.90;99.90
62998;DHT22;55949;52.590;7.330;2023-04-06T05:51:15;3.20;99.90
62998;DHT22;55949;52.590;7.330;2023-04-06T05:52:16;3.20;99.90
62998;DHT22;55949;52.590;7.330;2023-04-06T05:53:17;3.20;99.90
62998;DHT22;55949;52.590;7.330;2023-04-06T05:54:18;3.50;99.90
62998;DHT22;55949;52.590;7.330;2023-04-06T05:55:19;3.70;99.90
62998;DHT22;55949;52.590;7.330;2023-04-06T05:56:19;3.90;99.90
62998;DHT22;55949;52.590;7.330;2023-04-06T05:57:20;4.10;99.90
62998;DHT22;55949;52.590;7.330;2023-04-06T05:58:21;4.30;99.90
62998;DHT22;55949;52.590;7.330;2023-04-06T05:59:22;4.20;99.90
62998;DHT22;55949;52.590;7.330;2023-04-06T06:00:24;4.20;99.90
62998;DHT22;55949;52.590;7.330;2023-04-06T06:01:25;4.10;99.90
62998;DHT22;55949;52.590;7.330;2023-04-06T06:02:25;4.10;99.90
62998;DHT22;55949;52.590;7.330;2023-04-06T06:03:26;4.00;99.90
62998;DHT22;55949;52.590;7.330;2023-04-06T06:04:27;4.10;99.90
62998;DHT22;55949;52.590;7.330;2023-04-06T06:05:28;4.00;99.90
62998;DHT22;55949;52.590;7.330;2023-04-06T06:06:29;4.00;99.90
62998;DHT22;55949;52.590;7.330;2023-04-06T06:07:33;3.80;99.90
62998;DHT22;55949;52.590;7.330;2023-04-06T06:08:34;3.60;99.90
62998;DHT22;55949;52.590;7.330;2023-04-06T06:09:34;3.50;99.90
62998;DHT22;55949;52.590;7.330;2023-04-06T06:10:35;3.30;99.90
62998;DHT22;55949;52.590;7.330;2023-04-06T06:11:36;3.10;99.90
62998;DHT22;55949;52.590;7.330;2023-04-06T06:12:37;3.10;99.90
62998;DHT22;55949;52.590;7.330;2023-04-06T06:13:38;3.00;99.90
62998;DHT22;55949;52.590;7.330;2023-04-06T06:14:39;3.00;99.90
62998;DHT22;55949;52.590;7.330;2023-04-06T06:15:40;2.90;99.90
62998;DHT22;55949;52.590;7.330;2023-04-06T06:16:41;3.00;99.90
62998;DHT22;55949;52.590;7.330;2023-04-06T06:17:41;3.10;99.90
62998;DHT22;55949;52.590;7.330;2023-04-06T06:18:42;3.10;99.90
62998;DHT22;55949;52.590;7.330;2023-04-06T06:19:43;3.20;99.90
62998;DHT22;55949;52.590;7.330;2023-04-06T06:20:43;3.30;99.90
62998;DHT22;55949;52.590;7.330;2023-04-06T06:21:45;3.40;99.90
62998;DHT22;55949;52.590;7.330;2023-04-06T06:22:45;3.40;99.90
62998;DHT22;55949;52.590;7.330;2023-04-06T06:23:46;3.40;99.90
62998;DHT22;55949;52.590;7.330;2023-04-06T06:24:48;3.40;99.90
62998;DHT22;55949;52.590;7.330;2023-04-06T06:25:50;3.40;99.90
62998;DHT22;55949;52.590;7.330;2023-04-06T06:26:51;3.40;99.90
62998;DHT22;55949;52.590;7.330;2023-04-06T06:27:52;3.60;99.90
62998;DHT22;55949;52.590;7.330;2023-04-06T06:28:52;3.70;99.90
62998;DHT22;55949;52.590;7.330;2023-04-06T06:29:53;4.00;99.90